createdAt,value
2023-05-12T00:02:17.987Z,7.67
2023-05-12T00:04:44.629Z,7.72
2023-05-12T00:07:11.342Z,7.74
2023-05-12T00:09:37.944Z,7.76
2023-05-12T00:12:04.968Z,7.64
2023-05-12T00:14:31.604Z,7.74
2023-05-12T00:16:58.269Z,7.72
2023-05-12T00:19:24.863Z,7.66
2023-05-12T00:21:51.574Z,7.74
2023-05-12T00:24:18.314Z,7.73
2023-05-12T00:26:44.866Z,7.69
2023-05-12T00:29:11.466Z,7.71
2023-05-12T00:31:38.143Z,7.67
2023-05-12T00:34:04.845Z,7.65
2023-05-12T00:36:31.817Z,7.57
2023-05-12T00:38:58.619Z,7.62
2023-05-12T00:41:25.195Z,7.59
2023-05-12T00:43:52.443Z,7.54
2023-05-12T00:46:19.405Z,7.50
2023-05-12T00:48:46.592Z,7.54
2023-05-12T00:51:13.755Z,7.49
2023-05-12T00:53:49.132Z,7.28
2023-05-12T00:56:19.329Z,7.32
2023-05-12T00:58:46.262Z,7.27
2023-05-12T01:01:13.234Z,7.15
2023-05-12T01:03:40.037Z,7.15
2023-05-12T01:06:16.614Z,7.08
2023-05-12T01:08:44.221Z,7.11
2023-05-12T01:11:10.820Z,7.07
2023-05-12T01:13:39.538Z,7.00
2023-05-12T01:16:10.028Z,7.01
2023-05-12T01:18:39.076Z,6.90
2023-05-12T01:21:06.663Z,6.84
2023-05-12T01:23:42.546Z,6.71
2023-05-12T01:26:10.477Z,6.75
2023-05-12T01:28:37.782Z,6.67
2023-05-12T01:31:06.826Z,6.69
2023-05-12T01:33:34.881Z,6.61
2023-05-12T01:36:01.497Z,6.57
2023-05-12T01:38:28.135Z,6.51
2023-05-12T01:40:54.669Z,6.57
2023-05-12T01:43:22.312Z,6.51
2023-05-12T01:45:49.155Z,6.25
2023-05-12T01:48:15.784Z,6.39
2023-05-12T01:50:42.584Z,6.32
2023-05-12T01:53:12.581Z,6.26
2023-05-12T01:55:39.619Z,6.29
2023-05-12T01:58:06.184Z,6.23
2023-05-12T02:00:32.767Z,6.15
2023-05-12T02:02:59.483Z,6.20
2023-05-12T02:05:26.377Z,6.19
2023-05-12T02:07:53.097Z,6.10
2023-05-12T02:10:20.046Z,6.11
2023-05-12T02:12:46.866Z,5.98
2023-05-12T02:15:13.445Z,5.99
2023-05-12T02:17:40.065Z,5.99
2023-05-12T02:20:07.560Z,5.96
2023-05-12T02:22:34.097Z,5.95
2023-05-12T02:25:00.924Z,5.97
2023-05-12T02:27:27.710Z,5.91
2023-05-12T02:29:54.351Z,5.88
2023-05-12T02:32:21.774Z,5.70
2023-05-12T02:34:48.426Z,5.83
2023-05-12T02:37:15.168Z,5.82
2023-05-12T02:39:41.772Z,5.78
2023-05-12T02:42:08.369Z,5.76
2023-05-12T02:44:35.006Z,5.71
2023-05-12T02:47:01.588Z,5.64
2023-05-12T02:49:28.216Z,5.70
2023-05-12T02:51:55.395Z,5.61
2023-05-12T02:54:21.977Z,5.60
2023-05-12T02:56:48.683Z,5.64
2023-05-12T02:59:15.511Z,5.68
2023-05-12T03:01:42.428Z,5.63
2023-05-12T03:04:09.138Z,5.62
2023-05-12T03:06:35.785Z,5.66
2023-05-12T03:09:02.629Z,5.69
2023-05-12T03:11:29.291Z,5.64
2023-05-12T03:13:55.927Z,5.69
2023-05-12T03:16:22.661Z,5.69
2023-05-12T03:18:49.496Z,5.73
2023-05-12T03:21:16.262Z,5.65
2023-05-12T03:23:43.298Z,5.71
2023-05-12T03:26:09.915Z,5.68
2023-05-12T03:28:36.931Z,5.77
2023-05-12T03:31:03.611Z,5.75
2023-05-12T03:33:30.352Z,5.80
2023-05-12T03:35:56.980Z,5.78
2023-05-12T03:38:23.684Z,5.67
2023-05-12T03:40:53.432Z,5.74
2023-05-12T03:43:21.324Z,5.80
2023-05-12T03:45:47.928Z,5.85
2023-05-12T03:48:14.644Z,5.84
2023-05-12T03:50:41.258Z,5.82
2023-05-12T03:53:07.962Z,5.77
2023-05-12T03:55:34.628Z,5.96
2023-05-12T03:58:01.233Z,5.92
2023-05-12T04:00:27.886Z,6.01
2023-05-12T04:02:54.685Z,5.99
2023-05-12T04:05:21.444Z,6.07
2023-05-12T04:07:48.418Z,6.09
2023-05-12T04:10:15.103Z,6.04
2023-05-12T04:12:42.191Z,6.14
2023-05-12T04:15:09.442Z,5.99
2023-05-12T04:17:36.112Z,6.26
2023-05-12T04:20:02.935Z,6.27
2023-05-12T04:22:30.490Z,6.27
2023-05-12T04:24:57.161Z,6.23
2023-05-12T04:27:23.761Z,6.29
2023-05-12T04:29:50.491Z,6.29
2023-05-12T04:32:17.254Z,6.39
2023-05-12T04:34:44.064Z,6.33
2023-05-12T04:37:10.779Z,6.32
2023-05-12T04:39:37.344Z,6.43
2023-05-12T04:42:04.489Z,6.43
2023-05-12T04:44:31.205Z,6.48
2023-05-12T04:46:58.086Z,6.40
2023-05-12T04:49:24.715Z,6.43
2023-05-12T04:51:51.732Z,6.39
2023-05-12T04:54:18.425Z,6.42
2023-05-12T04:56:45.143Z,6.44
2023-05-12T04:59:11.903Z,6.35
2023-05-12T05:01:38.678Z,6.46
2023-05-12T05:04:05.660Z,6.43
2023-05-12T05:06:32.564Z,6.49
2023-05-12T05:08:59.186Z,6.59
2023-05-12T05:11:26.209Z,6.62
2023-05-12T05:13:52.838Z,6.62
2023-05-12T05:16:19.585Z,6.48
2023-05-12T05:18:46.766Z,6.55
2023-05-12T05:21:16.359Z,6.57
2023-05-12T05:23:42.992Z,6.70
2023-05-12T05:26:09.820Z,6.53
2023-05-12T05:28:37.348Z,6.73
2023-05-12T05:31:04.180Z,6.57
2023-05-12T05:33:31.383Z,6.77
2023-05-12T05:35:58.072Z,6.75
2023-05-12T05:38:24.644Z,6.75
2023-05-12T05:40:54.310Z,6.76
2023-05-12T05:43:21.381Z,6.84
2023-05-12T05:45:49.864Z,6.81
2023-05-12T05:48:16.838Z,6.72
2023-05-12T05:50:43.884Z,6.76
2023-05-12T05:53:10.689Z,6.80
2023-05-12T05:55:37.275Z,6.89
2023-05-12T05:58:04.057Z,6.91
2023-05-12T06:00:30.726Z,6.98
2023-05-12T06:02:57.402Z,7.02
2023-05-12T06:05:24.111Z,7.09
2023-05-12T06:07:50.754Z,7.13
2023-05-12T06:10:17.457Z,7.16
2023-05-12T06:12:44.162Z,7.15
2023-05-12T06:15:11.255Z,7.18
2023-05-12T06:17:38.436Z,7.16
2023-05-12T06:20:06.569Z,7.13
2023-05-12T06:22:34.838Z,7.26
2023-05-12T06:25:02.451Z,7.29
2023-05-12T06:27:29.092Z,7.41
2023-05-12T06:29:55.777Z,7.40
2023-05-12T06:32:22.435Z,7.48
2023-05-12T06:34:49.222Z,7.51
2023-05-12T06:37:16.055Z,7.47
2023-05-12T06:39:42.701Z,7.54
2023-05-12T06:42:09.478Z,7.52
2023-05-12T06:44:36.093Z,7.72
2023-05-12T06:47:06.129Z,7.56
2023-05-12T06:49:35.693Z,7.81
2023-05-12T06:52:06.803Z,7.72
2023-05-12T06:54:33.606Z,7.69
2023-05-12T06:57:00.898Z,7.83
2023-05-12T06:59:28.385Z,7.85
2023-05-12T07:01:55.253Z,7.91
2023-05-12T07:04:22.674Z,8.06
2023-05-12T07:06:49.470Z,8.06
2023-05-12T07:09:18.809Z,8.07
2023-05-12T07:11:50.638Z,8.12
2023-05-12T07:14:19.762Z,8.11
2023-05-12T07:16:47.123Z,7.79
2023-05-12T07:19:13.834Z,7.97
2023-05-12T07:21:40.640Z,8.20
2023-05-12T07:24:07.674Z,8.35
2023-05-12T07:26:34.372Z,8.33
2023-05-12T07:29:01.475Z,8.49
2023-05-12T07:31:28.959Z,8.58
2023-05-12T07:33:56.171Z,8.31
2023-05-12T07:36:22.967Z,8.25
2023-05-12T07:38:50.057Z,8.10
2023-05-12T07:41:17.469Z,8.35
2023-05-12T07:43:44.211Z,8.41
2023-05-12T07:46:11.061Z,8.31
2023-05-12T07:48:40.585Z,8.41
2023-05-12T07:51:08.566Z,8.39
2023-05-12T07:53:35.806Z,8.25
2023-05-12T07:56:02.740Z,8.83
2023-05-12T07:58:30.053Z,8.98
2023-05-12T08:00:59.376Z,9.28
2023-05-12T08:03:26.538Z,9.21
2023-05-12T08:05:53.487Z,9.55
2023-05-12T08:08:20.362Z,9.45
2023-05-12T08:10:47.094Z,9.72
2023-05-12T08:13:14.980Z,9.68
2023-05-12T08:15:41.666Z,9.55
2023-05-12T08:18:09.311Z,9.93
2023-05-12T08:20:36.187Z,9.76
2023-05-12T08:23:03.366Z,10.02
2023-05-12T08:25:30.785Z,9.95
2023-05-12T08:27:59.982Z,10.21
2023-05-12T08:30:27.535Z,9.98
2023-05-12T08:32:57.783Z,10.42
2023-05-12T08:35:26.670Z,10.15
2023-05-12T08:37:53.530Z,10.30
2023-05-12T08:40:25.109Z,10.30
2023-05-12T08:43:25.887Z,10.65
2023-05-12T08:45:58.370Z,10.24
2023-05-12T08:48:30.038Z,10.47
2023-05-12T08:50:58.044Z,10.25
2023-05-12T08:53:28.022Z,10.42
2023-05-12T08:58:48.429Z,10.44
2023-05-12T09:01:16.901Z,10.27
2023-05-12T09:03:44.057Z,9.86
2023-05-12T09:06:11.703Z,10.40
2023-05-12T09:08:40.736Z,10.26
2023-05-12T09:11:11.497Z,10.72
2023-05-12T09:14:01.642Z,10.48
2023-05-12T09:16:31.636Z,10.73
2023-05-12T09:19:00.215Z,10.77
2023-05-12T09:21:28.951Z,10.65
2023-05-12T09:24:06.570Z,10.68
2023-05-12T09:26:53.625Z,10.42
2023-05-12T09:29:31.343Z,10.48
2023-05-12T09:32:02.420Z,10.67
2023-05-12T09:34:41.768Z,10.93
2023-05-12T09:37:08.717Z,10.73
2023-05-12T09:39:39.895Z,11.16
2023-05-12T09:42:12.515Z,10.75
2023-05-12T09:44:40.039Z,11.89
2023-05-12T09:47:08.348Z,11.72
2023-05-12T09:49:38.523Z,11.79
2023-05-12T09:52:05.529Z,11.83
2023-05-12T09:54:33.642Z,11.90
2023-05-12T09:57:07.531Z,11.90
2023-05-12T09:59:44.070Z,11.97
2023-05-12T10:02:16.486Z,11.79
2023-05-12T10:04:49.360Z,12.33
2023-05-12T10:07:18.002Z,12.41
2023-05-12T10:09:50.297Z,11.97
2023-05-12T10:12:18.249Z,12.33
2023-05-12T10:14:47.284Z,12.51
2023-05-12T10:17:16.728Z,11.95
2023-05-12T10:19:44.766Z,11.89
2023-05-12T10:22:11.612Z,11.71
2023-05-12T10:24:40.993Z,11.48
2023-05-12T10:27:12.440Z,12.45
2023-05-12T10:29:40.009Z,12.11
2023-05-12T10:32:07.209Z,12.51
2023-05-12T10:34:35.280Z,13.36
2023-05-12T10:37:08.491Z,13.93
2023-05-12T10:39:35.795Z,14.02
2023-05-12T10:42:09.760Z,14.39
2023-05-12T10:44:37.412Z,14.76
2023-05-12T10:47:16.784Z,14.36
2023-05-12T10:49:44.233Z,14.53
2023-05-12T10:52:13.272Z,14.29
2023-05-12T10:54:44.852Z,14.33
2023-05-12T10:57:28.796Z,14.06
2023-05-12T11:00:01.057Z,14.29
2023-05-12T11:02:35.990Z,14.17
2023-05-12T11:05:10.791Z,13.83
2023-05-12T11:07:37.985Z,14.06
2023-05-12T11:10:06.101Z,14.17
2023-05-12T11:12:38.150Z,14.38
2023-05-12T11:15:07.162Z,14.49
2023-05-12T11:17:34.561Z,14.71
2023-05-12T11:20:01.650Z,14.59
2023-05-12T11:22:29.078Z,14.77
2023-05-12T11:24:56.340Z,14.68
2023-05-12T11:27:23.890Z,14.33
2023-05-12T11:30:02.985Z,13.98
2023-05-12T11:32:30.464Z,14.02
2023-05-12T11:35:20.091Z,13.98
2023-05-12T11:37:47.076Z,13.77
2023-05-12T11:40:18.845Z,13.73
2023-05-12T11:42:48.877Z,13.80
2023-05-12T11:45:25.013Z,13.75
2023-05-12T11:47:52.608Z,13.60
2023-05-12T11:50:23.891Z,13.43
2023-05-12T11:52:54.846Z,13.39
2023-05-12T11:55:23.914Z,13.50
2023-05-12T11:57:58.790Z,13.33
2023-05-12T12:00:35.530Z,13.43
2023-05-12T12:03:12.824Z,13.71
2023-05-12T12:05:41.700Z,13.79
2023-05-12T12:08:16.256Z,14.13
2023-05-12T12:10:50.824Z,14.07
2023-05-12T12:13:26.438Z,13.85
2023-05-12T12:15:53.275Z,14.12
2023-05-12T12:18:20.049Z,14.01
2023-05-12T12:20:47.564Z,14.06
2023-05-12T12:23:14.423Z,13.80
2023-05-12T12:25:41.061Z,14.02
2023-05-12T12:28:08.304Z,14.03
2023-05-12T12:30:35.156Z,13.99
2023-05-12T12:33:02.108Z,14.13
2023-05-12T12:35:29.025Z,14.25
2023-05-12T12:37:55.856Z,14.14
2023-05-12T12:40:22.558Z,13.99
2023-05-12T12:42:49.327Z,14.18
2023-05-12T12:45:17.008Z,14.24
2023-05-12T12:47:45.302Z,14.44
2023-05-12T12:50:12.116Z,14.45
2023-05-12T12:52:38.837Z,14.01
2023-05-12T12:55:06.852Z,14.08
2023-05-12T12:57:33.635Z,13.84
2023-05-12T13:00:01.666Z,13.70
2023-05-12T13:02:28.490Z,13.73
2023-05-12T13:04:55.301Z,13.82
2023-05-12T13:07:21.939Z,13.81
2023-05-12T13:09:48.890Z,13.81
2023-05-12T13:12:16.024Z,13.93
2023-05-12T13:14:42.689Z,13.88
2023-05-12T13:17:09.779Z,13.91
2023-05-12T13:19:38.264Z,13.83
2023-05-12T13:22:05.321Z,13.87
2023-05-12T13:24:32.336Z,14.02
2023-05-12T13:26:59.144Z,14.14
2023-05-12T13:29:25.810Z,14.19
2023-05-12T13:31:52.968Z,13.90
2023-05-12T13:34:19.824Z,13.65
2023-05-12T13:36:46.700Z,13.79
2023-05-12T13:39:13.553Z,13.41
2023-05-12T13:41:40.160Z,13.64
2023-05-12T13:44:06.792Z,13.58
2023-05-12T13:46:33.675Z,13.64
2023-05-12T13:49:00.838Z,13.98
2023-05-12T13:51:27.925Z,13.92
2023-05-12T13:53:54.728Z,13.88
2023-05-12T13:56:21.493Z,13.81
2023-05-12T13:58:51.190Z,14.13
2023-05-12T14:01:18.243Z,14.25
2023-05-12T14:03:45.621Z,14.39
2023-05-12T14:06:13.001Z,14.47
2023-05-12T14:08:41.761Z,14.40
2023-05-12T14:11:08.801Z,14.49
2023-05-12T14:13:35.782Z,14.39
2023-05-12T14:16:02.793Z,14.21
2023-05-12T14:18:30.015Z,14.02
2023-05-12T14:20:57.298Z,13.81
2023-05-12T14:23:24.669Z,14.47
2023-05-12T14:25:53.869Z,14.48
2023-05-12T14:28:22.358Z,13.87
2023-05-12T14:30:49.667Z,14.32
2023-05-12T14:33:16.738Z,14.37
2023-05-12T14:35:46.329Z,14.23
2023-05-12T14:38:17.357Z,13.87
2023-05-12T14:40:44.113Z,13.66
2023-05-12T14:43:13.283Z,14.06
2023-05-12T14:45:40.090Z,13.90
2023-05-12T14:48:07.142Z,13.71
2023-05-12T14:50:34.487Z,13.72
2023-05-12T14:53:01.220Z,13.95
2023-05-12T14:55:30.066Z,13.83
2023-05-12T14:57:56.727Z,14.07
2023-05-12T15:00:23.625Z,13.77
2023-05-12T15:02:50.446Z,13.50
2023-05-12T15:05:17.963Z,13.94
2023-05-12T15:07:44.797Z,14.02
2023-05-12T15:10:12.077Z,13.58
2023-05-12T15:12:38.813Z,13.71
2023-05-12T15:15:08.816Z,14.04
2023-05-12T15:17:35.639Z,14.09
2023-05-12T15:20:03.822Z,13.98
2023-05-12T15:22:33.268Z,13.85
2023-05-12T15:25:00.030Z,14.06
2023-05-12T15:27:27.646Z,13.88
2023-05-12T15:29:54.547Z,14.00
2023-05-12T15:32:21.420Z,14.10
2023-05-12T15:34:48.374Z,13.76
2023-05-12T15:37:15.311Z,13.94
2023-05-12T15:39:42.116Z,13.78
2023-05-12T15:42:09.463Z,14.01
2023-05-12T15:44:37.240Z,13.99
2023-05-12T15:47:04.203Z,14.39
2023-05-12T15:49:30.993Z,14.16
2023-05-12T15:51:58.351Z,14.07
2023-05-12T15:54:26.582Z,13.82
2023-05-12T15:56:53.505Z,13.62
2023-05-12T15:59:20.582Z,13.44
2023-05-12T16:01:47.384Z,13.61
2023-05-12T16:04:14.301Z,13.54
2023-05-12T16:06:41.777Z,13.21
2023-05-12T16:09:09.560Z,13.25
2023-05-12T16:11:37.091Z,13.18
2023-05-12T16:14:03.997Z,13.34
2023-05-12T16:16:30.976Z,13.03
2023-05-12T16:18:57.924Z,13.21
2023-05-12T16:21:24.860Z,13.07
2023-05-12T16:23:51.844Z,13.02
2023-05-12T16:26:19.373Z,12.65
2023-05-12T16:28:46.030Z,13.22
2023-05-12T16:31:17.978Z,13.09
2023-05-12T16:33:44.807Z,12.96
2023-05-12T16:36:15.318Z,13.01
2023-05-12T16:38:42.790Z,12.93
2023-05-12T16:41:09.587Z,12.88
2023-05-12T16:43:36.213Z,12.90
2023-05-12T16:46:03.795Z,12.83
2023-05-12T16:48:34.403Z,12.78
2023-05-12T16:51:09.268Z,12.71
2023-05-12T16:53:41.467Z,12.72
2023-05-12T16:56:08.118Z,12.62
2023-05-12T16:58:35.037Z,12.43
2023-05-12T17:01:03.239Z,12.39
2023-05-12T17:03:30.512Z,11.80
2023-05-12T17:06:02.082Z,12.21
2023-05-12T17:08:31.279Z,12.12
2023-05-12T17:10:57.956Z,11.79
2023-05-12T17:13:24.732Z,11.59
2023-05-12T17:15:51.455Z,11.85
2023-05-12T17:18:18.606Z,11.51
2023-05-12T17:20:45.302Z,11.83
2023-05-12T17:23:12.790Z,11.45
2023-05-12T17:25:39.785Z,11.80
2023-05-12T17:28:06.761Z,11.74
2023-05-12T17:30:34.736Z,11.73
2023-05-12T17:33:01.786Z,11.72
2023-05-12T17:35:29.230Z,11.65
2023-05-12T17:37:56.471Z,11.64
2023-05-12T17:40:23.274Z,11.57
2023-05-12T17:42:50.463Z,11.55
2023-05-12T17:45:18.036Z,11.45
2023-05-12T17:47:45.782Z,11.32
2023-05-12T17:50:14.881Z,11.50
2023-05-12T17:52:42.224Z,11.51
2023-05-12T17:55:10.088Z,11.61
2023-05-12T17:57:36.744Z,11.56
2023-05-12T18:00:09.751Z,11.58
2023-05-12T18:02:38.515Z,11.42
2023-05-12T18:05:06.125Z,11.26
2023-05-12T18:07:33.041Z,11.43
2023-05-12T18:09:59.887Z,11.37
2023-05-12T18:12:27.006Z,11.21
2023-05-12T18:14:53.705Z,11.01
2023-05-12T18:17:20.997Z,11.38
2023-05-12T18:19:47.735Z,11.43
2023-05-12T18:22:17.001Z,11.38
2023-05-12T18:24:44.340Z,10.85
2023-05-12T18:27:11.559Z,10.99
2023-05-12T18:29:38.926Z,11.23
2023-05-12T18:32:06.139Z,11.20
2023-05-12T18:34:33.831Z,11.15
2023-05-12T18:37:00.840Z,11.10
2023-05-12T18:39:27.538Z,11.16
2023-05-12T18:41:54.783Z,11.01
2023-05-12T18:44:21.486Z,11.04
2023-05-12T18:46:48.916Z,10.98
2023-05-12T18:49:15.834Z,10.86
2023-05-12T18:51:42.642Z,10.92
2023-05-12T18:54:09.796Z,10.96
2023-05-12T18:56:37.167Z,10.53
2023-05-12T18:59:03.963Z,10.70
2023-05-12T19:01:33.007Z,10.35
2023-05-12T19:04:00.010Z,10.19
2023-05-12T19:06:27.215Z,10.49
2023-05-12T19:08:54.351Z,10.11
2023-05-12T19:11:21.351Z,10.57
2023-05-12T19:13:50.727Z,10.57
2023-05-12T19:16:18.415Z,10.53
2023-05-12T19:18:45.970Z,10.56
2023-05-12T19:21:13.514Z,10.20
2023-05-12T19:23:40.488Z,10.49
2023-05-12T19:26:07.642Z,10.18
2023-05-12T19:28:34.382Z,10.05
2023-05-12T19:31:01.199Z,10.24
2023-05-12T19:33:29.441Z,10.26
2023-05-12T19:35:56.792Z,9.94
2023-05-12T19:38:23.934Z,10.24
2023-05-12T19:40:50.805Z,10.20
2023-05-12T19:43:17.606Z,10.21
2023-05-12T19:45:49.177Z,9.85
2023-05-12T19:48:21.613Z,10.19
2023-05-12T19:50:58.569Z,9.37
2023-05-12T19:53:34.802Z,9.29
2023-05-12T19:56:02.400Z,9.38
2023-05-12T19:58:37.998Z,10.06
2023-05-12T20:01:08.374Z,10.14
2023-05-12T20:03:35.690Z,10.01
2023-05-12T20:06:37.027Z,9.83
2023-05-12T20:09:07.327Z,9.28
2023-05-12T20:11:38.111Z,10.08
2023-05-12T20:14:11.287Z,10.10
2023-05-12T20:16:57.733Z,9.81
2023-05-12T20:19:34.090Z,10.10
2023-05-12T20:22:06.312Z,9.65
2023-05-12T20:24:33.810Z,9.79
2023-05-12T20:27:02.191Z,9.58
2023-05-12T20:29:33.093Z,10.08
2023-05-12T20:32:12.361Z,9.27
2023-05-12T20:34:41.325Z,10.11
2023-05-12T20:39:59.410Z,10.05
2023-05-12T20:45:16.816Z,10.08
2023-05-12T20:47:47.538Z,9.76
2023-05-12T20:50:18.526Z,10.11
2023-05-12T20:52:47.668Z,10.16
2023-05-12T20:55:15.267Z,9.64
2023-05-12T20:57:44.092Z,10.23
2023-05-12T21:00:13.735Z,10.21
2023-05-12T21:02:40.825Z,9.81
2023-05-12T21:05:07.956Z,10.19
2023-05-12T21:07:34.882Z,9.98
2023-05-12T21:10:03.189Z,10.26
2023-05-12T21:12:30.941Z,10.21
2023-05-12T21:14:58.190Z,10.10
2023-05-12T21:17:25.158Z,10.14
2023-05-12T21:19:51.996Z,10.25
2023-05-12T21:22:18.793Z,9.85
2023-05-12T21:24:45.547Z,9.78
2023-05-12T21:27:12.350Z,10.01
2023-05-12T21:29:40.038Z,9.81
2023-05-12T21:32:07.905Z,9.43
2023-05-12T21:34:36.102Z,9.36
2023-05-12T21:37:03.093Z,9.39
2023-05-12T21:39:30.100Z,9.66
2023-05-12T21:41:56.997Z,9.77
2023-05-12T21:44:24.200Z,9.73
2023-05-12T21:46:51.304Z,9.62
2023-05-12T21:49:18.603Z,9.50
2023-05-12T21:51:45.586Z,9.78
2023-05-12T21:54:12.898Z,9.68
2023-05-12T21:56:40.308Z,9.75
2023-05-12T21:59:07.014Z,9.63
2023-05-12T22:01:34.077Z,9.45
2023-05-12T22:04:01.342Z,9.13
2023-05-12T22:06:28.241Z,9.39
2023-05-12T22:08:55.909Z,9.23
2023-05-12T22:11:23.612Z,8.35
2023-05-12T22:13:51.603Z,9.06
2023-05-12T22:16:21.841Z,8.71
2023-05-12T22:18:53.050Z,8.77
2023-05-12T22:21:20.803Z,8.20
2023-05-12T22:23:49.005Z,8.74
2023-05-12T22:26:16.343Z,8.46
2023-05-12T22:28:43.801Z,8.91
2023-05-12T22:31:10.919Z,8.68
2023-05-12T22:33:37.949Z,8.49
2023-05-12T22:36:06.208Z,8.59
2023-05-12T22:38:33.482Z,8.50
2023-05-12T22:41:14.395Z,8.22
2023-05-12T22:43:42.095Z,8.23
2023-05-12T22:46:09.774Z,8.65
2023-05-12T22:48:39.444Z,8.34
2023-05-12T22:51:07.044Z,8.81
2023-05-12T22:53:37.480Z,8.52
2023-05-12T22:56:08.653Z,8.92
2023-05-12T22:58:36.576Z,8.16
2023-05-12T23:01:04.211Z,8.73
2023-05-12T23:03:33.581Z,8.23
2023-05-12T23:06:20.775Z,7.75
2023-05-12T23:11:54.943Z,8.10
2023-05-12T23:14:26.177Z,8.02
2023-05-12T23:16:54.464Z,7.44
2023-05-12T23:19:29.219Z,7.28
2023-05-12T23:22:06.577Z,8.05
2023-05-12T23:26:51.304Z,8.01
2023-05-12T23:31:06.807Z,7.55
2023-05-12T23:33:53.143Z,8.00
2023-05-12T23:36:41.165Z,7.97
2023-05-12T23:39:14.241Z,7.16
2023-05-12T23:41:55.602Z,7.04
2023-05-12T23:44:26.652Z,7.47
2023-05-12T23:46:56.211Z,7.09
2023-05-12T23:49:31.421Z,7.44
2023-05-12T23:51:59.354Z,7.54
2023-05-12T23:54:34.204Z,7.80
2023-05-12T23:57:03.836Z,7.73
2023-05-12T23:59:34.256Z,7.44
